sensor_id;sensor_type;location;lat;lon;timestamp;P1;durP1;ratioP1;P2;durP2;ratioP2
49235;SDS011;35067;48.134;8.378;2024-01-15T00:00:43;21.67;;;9.90;;
49235;SDS011;35067;48.134;8.378;2024-01-15T00:01:44;16.92;;;9.20;;
49235;SDS011;35067;48.134;8.378;2024-01-15T00:02:45;23.20;;;11.50;;
49235;SDS011;35067;48.134;8.378;2024-01-15T00:03:47;19.60;;;8.90;;
49235;SDS011;35067;48.134;8.378;2024-01-15T00:04:47;19.60;;;9.93;;
49235;SDS011;35067;48.134;8.378;2024-01-15T00:05:48;19.50;;;9.83;;
49235;SDS011;35067;48.134;8.378;2024-01-15T00:06:49;15.60;;;9.20;;
49235;SDS011;35067;48.134;8.378;2024-01-15T00:07:50;16.55;;;9.27;;
49235;SDS011;35067;48.134;8.378;2024-01-15T00:08:51;21.90;;;10.23;;
49235;SDS011;35067;48.134;8.378;2024-01-15T00:09:51;19.27;;;9.37;;
49235;SDS011;35067;48.134;8.378;2024-01-15T00:10:52;19.67;;;10.00;;
49235;SDS011;35067;48.134;8.378;2024-01-15T00:11:53;20.13;;;8.63;;
49235;SDS011;35067;48.134;8.378;2024-01-15T00:12:53;17.73;;;9.53;;
49235;SDS011;35067;48.134;8.378;2024-01-15T00:13:54;15.67;;;7.83;;
49235;SDS011;35067;48.134;8.378;2024-01-15T00:14:55;15.10;;;8.23;;
49235;SDS011;35067;48.134;8.378;2024-01-15T00:15:55;21.80;;;10.20;;
49235;SDS011;35067;48.134;8.378;2024-01-15T00:16:56;18.90;;;9.17;;
49235;SDS011;35067;48.134;8.378;2024-01-15T00:17:57;17.00;;;9.73;;
49235;SDS011;35067;48.134;8.378;2024-01-15T00:18:57;19.47;;;9.13;;
49235;SDS011;35067;48.134;8.378;2024-01-15T00:19:58;20.17;;;9.37;;
49235;SDS011;35067;48.134;8.378;2024-01-15T00:20:59;21.80;;;9.23;;
49235;SDS011;35067;48.134;8.378;2024-01-15T00:21:59;17.97;;;9.07;;
49235;SDS011;35067;48.134;8.378;2024-01-15T00:23:00;17.30;;;8.07;;
49235;SDS011;35067;48.134;8.378;2024-01-15T00:24:01;17.37;;;8.60;;
49235;SDS011;35067;48.134;8.378;2024-01-15T00:25:02;19.80;;;8.50;;
49235;SDS011;35067;48.134;8.378;2024-01-15T00:26:03;16.40;;;7.53;;
49235;SDS011;35067;48.134;8.378;2024-01-15T00:27:04;17.40;;;8.00;;
49235;SDS011;35067;48.134;8.378;2024-01-15T00:28:05;14.73;;;6.77;;
49235;SDS011;35067;48.134;8.378;2024-01-15T00:29:09;18.17;;;8.60;;
49235;SDS011;35067;48.134;8.378;2024-01-15T00:30:10;17.13;;;8.43;;
49235;SDS011;35067;48.134;8.378;2024-01-15T00:31:11;16.63;;;7.10;;
49235;SDS011;35067;48.134;8.378;2024-01-15T00:32:12;15.37;;;8.20;;
49235;SDS011;35067;48.134;8.378;2024-01-15T00:33:13;12.73;;;7.30;;
49235;SDS011;35067;48.134;8.378;2024-01-15T00:34:14;17.58;;;8.93;;
49235;SDS011;35067;48.134;8.378;2024-01-15T00:35:15;14.37;;;7.33;;
49235;SDS011;35067;48.134;8.378;2024-01-15T00:36:16;14.53;;;6.80;;
49235;SDS011;35067;48.134;8.378;2024-01-15T00:37:16;11.63;;;6.03;;
49235;SDS011;35067;48.134;8.378;2024-01-15T00:38:17;13.33;;;6.67;;
49235;SDS011;35067;48.134;8.378;2024-01-15T00:39:18;12.77;;;6.33;;
49235;SDS011;35067;48.134;8.378;2024-01-15T00:40:18;11.93;;;6.10;;
49235;SDS011;35067;48.134;8.378;2024-01-15T00:41:19;11.60;;;6.40;;
49235;SDS011;35067;48.134;8.378;2024-01-15T00:42:20;13.00;;;7.03;;
49235;SDS011;35067;48.134;8.378;2024-01-15T00:43:21;12.50;;;6.93;;
49235;SDS011;35067;48.134;8.378;2024-01-15T00:44:22;13.55;;;6.93;;
49235;SDS011;35067;48.134;8.378;2024-01-15T00:45:22;14.03;;;6.63;;
49235;SDS011;35067;48.134;8.378;2024-01-15T00:46:23;14.50;;;7.00;;
49235;SDS011;35067;48.134;8.378;2024-01-15T00:47:24;13.47;;;6.13;;
49235;SDS011;35067;48.134;8.378;2024-01-15T00:48:25;11.00;;;5.57;;
49235;SDS011;35067;48.134;8.378;2024-01-15T00:49:26;10.83;;;5.60;;
49235;SDS011;35067;48.134;8.378;2024-01-15T00:50:27;10.98;;;5.85;;
49235;SDS011;35067;48.134;8.378;2024-01-15T00:51:27;11.17;;;5.40;;
49235;SDS011;35067;48.134;8.378;2024-01-15T00:52:28;10.23;;;5.37;;
49235;SDS011;35067;48.134;8.378;2024-01-15T00:53:29;12.23;;;5.53;;
49235;SDS011;35067;48.134;8.378;2024-01-15T00:54:29;12.77;;;5.87;;
49235;SDS011;35067;48.134;8.378;2024-01-15T00:55:30;10.67;;;5.97;;
49235;SDS011;35067;48.134;8.378;2024-01-15T00:56:31;13.00;;;5.90;;
49235;SDS011;35067;48.134;8.378;2024-01-15T00:57:31;12.93;;;7.20;;
49235;SDS011;35067;48.134;8.378;2024-01-15T00:58:33;12.77;;;6.35;;
49235;SDS011;35067;48.134;8.378;2024-01-15T00:59:33;15.37;;;6.93;;
49235;SDS011;35067;48.134;8.378;2024-01-15T01:00:34;13.93;;;6.23;;
49235;SDS011;35067;48.134;8.378;2024-01-15T01:01:35;13.03;;;6.03;;
49235;SDS011;35067;48.134;8.378;2024-01-15T01:02:36;12.27;;;5.25;;
49235;SDS011;35067;48.134;8.378;2024-01-15T01:03:36;12.70;;;6.87;;
49235;SDS011;35067;48.134;8.378;2024-01-15T01:04:37;11.60;;;5.93;;
49235;SDS011;35067;48.134;8.378;2024-01-15T01:05:38;11.37;;;6.80;;
49235;SDS011;35067;48.134;8.378;2024-01-15T01:06:39;13.77;;;6.40;;
49235;SDS011;35067;48.134;8.378;2024-01-15T01:07:39;12.50;;;6.13;;
49235;SDS011;35067;48.134;8.378;2024-01-15T01:08:40;14.13;;;6.13;;
49235;SDS011;35067;48.134;8.378;2024-01-15T01:09:41;12.30;;;6.07;;
49235;SDS011;35067;48.134;8.378;2024-01-15T01:10:41;10.90;;;5.93;;
49235;SDS011;35067;48.134;8.378;2024-01-15T01:11:42;12.33;;;5.97;;
49235;SDS011;35067;48.134;8.378;2024-01-15T01:12:43;13.73;;;5.93;;
49235;SDS011;35067;48.134;8.378;2024-01-15T01:13:44;10.43;;;6.00;;
49235;SDS011;35067;48.134;8.378;2024-01-15T01:14:44;15.30;;;7.20;;
49235;SDS011;35067;48.134;8.378;2024-01-15T01:15:45;13.03;;;5.87;;
49235;SDS011;35067;48.134;8.378;2024-01-15T01:16:46;11.03;;;6.03;;
49235;SDS011;35067;48.134;8.378;2024-01-15T01:17:46;11.63;;;5.67;;
49235;SDS011;35067;48.134;8.378;2024-01-15T01:18:47;12.17;;;5.43;;
49235;SDS011;35067;48.134;8.378;2024-01-15T01:19:49;9.67;;;5.63;;
49235;SDS011;35067;48.134;8.378;2024-01-15T01:20:50;11.52;;;5.60;;
49235;SDS011;35067;48.134;8.378;2024-01-15T01:21:51;11.77;;;5.88;;
49235;SDS011;35067;48.134;8.378;2024-01-15T01:22:51;10.77;;;5.00;;
49235;SDS011;35067;48.134;8.378;2024-01-15T01:23:52;13.13;;;6.10;;
49235;SDS011;35067;48.134;8.378;2024-01-15T01:24:53;8.03;;;4.50;;
49235;SDS011;35067;48.134;8.378;2024-01-15T01:25:53;8.30;;;4.07;;
49235;SDS011;35067;48.134;8.378;2024-01-15T01:26:54;7.77;;;3.93;;
49235;SDS011;35067;48.134;8.378;2024-01-15T01:27:55;10.40;;;4.33;;
49235;SDS011;35067;48.134;8.378;2024-01-15T01:28:56;7.50;;;4.00;;
49235;SDS011;35067;48.134;8.378;2024-01-15T01:29:56;7.87;;;4.20;;
49235;SDS011;35067;48.134;8.378;2024-01-15T01:30:57;7.23;;;3.57;;
49235;SDS011;35067;48.134;8.378;2024-01-15T01:31:58;5.70;;;3.10;;
49235;SDS011;35067;48.134;8.378;2024-01-15T01:32:58;5.43;;;2.87;;
49235;SDS011;35067;48.134;8.378;2024-01-15T01:33:59;5.23;;;2.97;;
49235;SDS011;35067;48.134;8.378;2024-01-15T01:35:00;5.70;;;2.87;;
49235;SDS011;35067;48.134;8.378;2024-01-15T01:36:01;4.20;;;2.17;;
49235;SDS011;35067;48.134;8.378;2024-01-15T01:37:07;5.40;;;2.40;;
49235;SDS011;35067;48.134;8.378;2024-01-15T01:38:08;6.43;;;2.90;;
49235;SDS011;35067;48.134;8.378;2024-01-15T01:39:09;4.20;;;2.40;;
49235;SDS011;35067;48.134;8.378;2024-01-15T01:40:10;4.68;;;2.50;;
49235;SDS011;35067;48.134;8.378;2024-01-15T01:41:11;5.13;;;2.57;;
49235;SDS011;35067;48.134;8.378;2024-01-15T01:42:12;5.70;;;2.50;;
49235;SDS011;35067;48.134;8.378;2024-01-15T01:43:12;4.40;;;2.63;;
49235;SDS011;35067;48.134;8.378;2024-01-15T01:44:13;3.57;;;2.33;;
49235;SDS011;35067;48.134;8.378;2024-01-15T01:45:14;4.40;;;2.27;;
49235;SDS011;35067;48.134;8.378;2024-01-15T01:46:15;3.75;;;2.28;;
49235;SDS011;35067;48.134;8.378;2024-01-15T01:47:16;5.28;;;2.53;;
49235;SDS011;35067;48.134;8.378;2024-01-15T01:48:17;4.80;;;2.87;;
49235;SDS011;35067;48.134;8.378;2024-01-15T01:49:18;4.68;;;2.47;;
49235;SDS011;35067;48.134;8.378;2024-01-15T01:50:19;3.13;;;2.15;;
49235;SDS011;35067;48.134;8.378;2024-01-15T01:51:20;4.13;;;2.03;;
49235;SDS011;35067;48.134;8.378;2024-01-15T01:52:23;4.53;;;2.15;;
49235;SDS011;35067;48.134;8.378;2024-01-15T01:53:24;4.88;;;2.95;;
49235;SDS011;35067;48.134;8.378;2024-01-15T01:54:27;5.70;;;2.47;;
49235;SDS011;35067;48.134;8.378;2024-01-15T01:55:31;4.47;;;2.70;;
49235;SDS011;35067;48.134;8.378;2024-01-15T01:56:34;3.92;;;2.20;;
49235;SDS011;35067;48.134;8.378;2024-01-15T01:57:35;4.63;;;2.22;;
49235;SDS011;35067;48.134;8.378;2024-01-15T01:58:36;3.77;;;2.23;;
49235;SDS011;35067;48.134;8.378;2024-01-15T01:59:37;2.87;;;1.77;;
49235;SDS011;35067;48.134;8.378;2024-01-15T02:00:38;3.38;;;2.00;;
49235;SDS011;35067;48.134;8.378;2024-01-15T02:01:39;2.40;;;1.73;;
49235;SDS011;35067;48.134;8.378;2024-01-15T02:02:41;4.18;;;2.15;;
49235;SDS011;35067;48.134;8.378;2024-01-15T02:03:42;3.95;;;2.30;;
49235;SDS011;35067;48.134;8.378;2024-01-15T02:04:43;4.00;;;2.33;;
49235;SDS011;35067;48.134;8.378;2024-01-15T02:05:44;5.25;;;2.20;;
49235;SDS011;35067;48.134;8.378;2024-01-15T02:06:48;2.30;;;1.80;;
49235;SDS011;35067;48.134;8.378;2024-01-15T02:07:50;5.20;;;2.47;;
49235;SDS011;35067;48.134;8.378;2024-01-15T02:08:50;4.20;;;2.30;;
49235;SDS011;35067;48.134;8.378;2024-01-15T02:09:52;2.13;;;1.60;;
49235;SDS011;35067;48.134;8.378;2024-01-15T02:10:52;4.23;;;1.80;;
49235;SDS011;35067;48.134;8.378;2024-01-15T02:11:53;3.37;;;1.90;;
49235;SDS011;35067;48.134;8.378;2024-01-15T02:12:54;3.60;;;1.93;;
49235;SDS011;35067;48.134;8.378;2024-01-15T02:13:54;2.83;;;2.40;;
49235;SDS011;35067;48.134;8.378;2024-01-15T02:14:55;2.50;;;1.70;;
49235;SDS011;35067;48.134;8.378;2024-01-15T02:15:56;3.43;;;2.03;;
49235;SDS011;35067;48.134;8.378;2024-01-15T02:16:56;3.23;;;1.90;;
49235;SDS011;35067;48.134;8.378;2024-01-15T02:17:58;3.53;;;1.97;;
49235;SDS011;35067;48.134;8.378;2024-01-15T02:19:03;3.45;;;1.85;;
49235;SDS011;35067;48.134;8.378;2024-01-15T02:20:03;2.67;;;1.80;;
49235;SDS011;35067;48.134;8.378;2024-01-15T02:21:05;2.70;;;2.03;;
49235;SDS011;35067;48.134;8.378;2024-01-15T02:22:06;4.47;;;2.30;;
49235;SDS011;35067;48.134;8.378;2024-01-15T02:23:10;2.37;;;1.60;;
49235;SDS011;35067;48.134;8.378;2024-01-15T02:24:14;3.05;;;1.70;;
49235;SDS011;35067;48.134;8.378;2024-01-15T02:25:14;2.63;;;1.43;;
49235;SDS011;35067;48.134;8.378;2024-01-15T02:26:15;2.87;;;1.93;;
49235;SDS011;35067;48.134;8.378;2024-01-15T02:27:16;3.63;;;1.80;;
49235;SDS011;35067;48.134;8.378;2024-01-15T02:28:17;3.67;;;1.73;;
49235;SDS011;35067;48.134;8.378;2024-01-15T02:29:18;2.77;;;2.00;;
49235;SDS011;35067;48.134;8.378;2024-01-15T02:30:19;2.53;;;1.80;;
49235;SDS011;35067;48.134;8.378;2024-01-15T02:31:20;2.60;;;1.70;;
49235;SDS011;35067;48.134;8.378;2024-01-15T02:32:20;4.03;;;2.77;;
49235;SDS011;35067;48.134;8.378;2024-01-15T02:33:21;3.30;;;2.33;;
49235;SDS011;35067;48.134;8.378;2024-01-15T02:34:21;4.47;;;2.40;;
49235;SDS011;35067;48.134;8.378;2024-01-15T02:35:22;3.00;;;2.00;;
49235;SDS011;35067;48.134;8.378;2024-01-15T02:36:23;3.27;;;2.23;;
49235;SDS011;35067;48.134;8.378;2024-01-15T02:37:23;2.80;;;1.90;;
49235;SDS011;35067;48.134;8.378;2024-01-15T02:38:24;3.00;;;1.97;;
49235;SDS011;35067;48.134;8.378;2024-01-15T02:39:25;3.83;;;2.23;;
49235;SDS011;35067;48.134;8.378;2024-01-15T02:40:26;4.20;;;2.20;;
49235;SDS011;35067;48.134;8.378;2024-01-15T02:41:26;3.17;;;2.10;;
49235;SDS011;35067;48.134;8.378;2024-01-15T02:42:27;3.47;;;2.00;;
49235;SDS011;35067;48.134;8.378;2024-01-15T02:43:28;4.40;;;2.13;;
49235;SDS011;35067;48.134;8.378;2024-01-15T02:44:28;4.47;;;3.13;;
49235;SDS011;35067;48.134;8.378;2024-01-15T02:45:29;3.70;;;2.13;;
49235;SDS011;35067;48.134;8.378;2024-01-15T02:46:30;3.83;;;2.27;;
49235;SDS011;35067;48.134;8.378;2024-01-15T02:47:30;3.87;;;2.30;;
49235;SDS011;35067;48.134;8.378;2024-01-15T02:48:31;3.10;;;2.10;;
49235;SDS011;35067;48.134;8.378;2024-01-15T02:49:32;3.60;;;1.92;;
49235;SDS011;35067;48.134;8.378;2024-01-15T02:50:33;4.37;;;2.30;;
49235;SDS011;35067;48.134;8.378;2024-01-15T02:51:34;3.77;;;2.63;;
49235;SDS011;35067;48.134;8.378;2024-01-15T02:52:35;3.57;;;2.00;;
49235;SDS011;35067;48.134;8.378;2024-01-15T02:53:36;3.80;;;2.30;;
49235;SDS011;35067;48.134;8.378;2024-01-15T02:54:37;4.38;;;2.22;;
49235;SDS011;35067;48.134;8.378;2024-01-15T02:55:37;3.37;;;2.57;;
49235;SDS011;35067;48.134;8.378;2024-01-15T02:56:38;3.90;;;2.33;;
49235;SDS011;35067;48.134;8.378;2024-01-15T02:57:39;3.03;;;1.90;;
49235;SDS011;35067;48.134;8.378;2024-01-15T02:58:40;3.97;;;1.87;;
49235;SDS011;35067;48.134;8.378;2024-01-15T02:59:40;3.50;;;2.37;;
49235;SDS011;35067;48.134;8.378;2024-01-15T03:00:41;3.97;;;2.50;;
49235;SDS011;35067;48.134;8.378;2024-01-15T03:01:42;5.22;;;2.50;;
49235;SDS011;35067;48.134;8.378;2024-01-15T03:02:43;3.23;;;2.10;;
49235;SDS011;35067;48.134;8.378;2024-01-15T03:03:44;2.83;;;2.08;;
49235;SDS011;35067;48.134;8.378;2024-01-15T03:04:45;3.03;;;2.13;;
49235;SDS011;35067;48.134;8.378;2024-01-15T03:05:46;2.77;;;2.40;;
49235;SDS011;35067;48.134;8.378;2024-01-15T03:06:47;2.88;;;1.60;;
49235;SDS011;35067;48.134;8.378;2024-01-15T03:07:47;2.00;;;1.50;;
49235;SDS011;35067;48.134;8.378;2024-01-15T03:08:48;3.50;;;2.17;;
49235;SDS011;35067;48.134;8.378;2024-01-15T03:09:49;2.97;;;1.70;;
49235;SDS011;35067;48.134;8.378;2024-01-15T03:10:49;3.30;;;2.03;;
49235;SDS011;35067;48.134;8.378;2024-01-15T03:11:50;2.27;;;1.53;;
49235;SDS011;35067;48.134;8.378;2024-01-15T03:12:51;4.20;;;1.80;;
49235;SDS011;35067;48.134;8.378;2024-01-15T03:13:51;3.37;;;2.00;;
49235;SDS011;35067;48.134;8.378;2024-01-15T03:14:52;2.77;;;1.60;;
49235;SDS011;35067;48.134;8.378;2024-01-15T03:15:53;3.70;;;2.57;;
49235;SDS011;35067;48.134;8.378;2024-01-15T03:16:53;2.40;;;1.87;;
49235;SDS011;35067;48.134;8.378;2024-01-15T03:17:54;2.83;;;1.80;;
49235;SDS011;35067;48.134;8.378;2024-01-15T03:18:55;3.00;;;1.97;;
49235;SDS011;35067;48.134;8.378;2024-01-15T03:19:55;4.27;;;1.90;;
49235;SDS011;35067;48.134;8.378;2024-01-15T03:20:56;3.83;;;1.87;;
49235;SDS011;35067;48.134;8.378;2024-01-15T03:21:57;2.47;;;1.80;;
49235;SDS011;35067;48.134;8.378;2024-01-15T03:22:58;3.43;;;2.10;;
49235;SDS011;35067;48.134;8.378;2024-01-15T03:23:58;10.13;;;2.57;;
49235;SDS011;35067;48.134;8.378;2024-01-15T03:24:59;5.23;;;1.97;;
49235;SDS011;35067;48.134;8.378;2024-01-15T03:26:00;3.10;;;1.90;;
49235;SDS011;35067;48.134;8.378;2024-01-15T03:27:01;3.40;;;2.53;;
49235;SDS011;35067;48.134;8.378;2024-01-15T03:28:02;3.10;;;2.20;;
49235;SDS011;35067;48.134;8.378;2024-01-15T03:29:03;3.90;;;2.10;;
49235;SDS011;35067;48.134;8.378;2024-01-15T03:30:04;3.53;;;2.20;;
49235;SDS011;35067;48.134;8.378;2024-01-15T03:31:05;3.70;;;2.13;;
49235;SDS011;35067;48.134;8.378;2024-01-15T03:32:07;4.53;;;2.55;;
49235;SDS011;35067;48.134;8.378;2024-01-15T03:33:08;5.27;;;2.53;;
49235;SDS011;35067;48.134;8.378;2024-01-15T03:34:08;2.57;;;1.70;;
49235;SDS011;35067;48.134;8.378;2024-01-15T03:35:09;3.40;;;2.47;;
49235;SDS011;35067;48.134;8.378;2024-01-15T03:36:10;3.17;;;2.10;;
49235;SDS011;35067;48.134;8.378;2024-01-15T03:37:10;4.10;;;2.97;;
49235;SDS011;35067;48.134;8.378;2024-01-15T03:38:12;2.22;;;1.73;;
49235;SDS011;35067;48.134;8.378;2024-01-15T03:39:13;4.30;;;2.60;;
49235;SDS011;35067;48.134;8.378;2024-01-15T03:40:14;3.13;;;1.80;;
49235;SDS011;35067;48.134;8.378;2024-01-15T03:41:14;3.77;;;2.63;;
49235;SDS011;35067;48.134;8.378;2024-01-15T03:42:15;4.57;;;2.10;;
49235;SDS011;35067;48.134;8.378;2024-01-15T03:43:16;3.83;;;2.43;;
49235;SDS011;35067;48.134;8.378;2024-01-15T03:44:16;3.63;;;1.83;;
49235;SDS011;35067;48.134;8.378;2024-01-15T03:45:17;3.90;;;2.63;;
49235;SDS011;35067;48.134;8.378;2024-01-15T03:46:18;3.83;;;1.90;;
49235;SDS011;35067;48.134;8.378;2024-01-15T03:47:18;3.10;;;2.07;;
49235;SDS011;35067;48.134;8.378;2024-01-15T03:48:19;4.70;;;2.60;;
49235;SDS011;35067;48.134;8.378;2024-01-15T03:49:20;4.03;;;2.00;;
49235;SDS011;35067;48.134;8.378;2024-01-15T03:50:20;3.50;;;2.27;;
49235;SDS011;35067;48.134;8.378;2024-01-15T03:51:21;5.00;;;3.27;;
49235;SDS011;35067;48.134;8.378;2024-01-15T03:52:23;3.60;;;1.77;;
49235;SDS011;35067;48.134;8.378;2024-01-15T03:53:23;5.17;;;2.37;;
49235;SDS011;35067;48.134;8.378;2024-01-15T03:54:24;3.90;;;2.23;;
49235;SDS011;35067;48.134;8.378;2024-01-15T03:55:25;3.03;;;1.90;;
49235;SDS011;35067;48.134;8.378;2024-01-15T03:56:26;4.03;;;2.07;;
49235;SDS011;35067;48.134;8.378;2024-01-15T03:57:27;4.30;;;2.13;;
49235;SDS011;35067;48.134;8.378;2024-01-15T03:58:27;3.20;;;2.13;;
49235;SDS011;35067;48.134;8.378;2024-01-15T03:59:28;4.47;;;2.23;;
49235;SDS011;35067;48.134;8.378;2024-01-15T04:00:29;3.43;;;1.87;;
49235;SDS011;35067;48.134;8.378;2024-01-15T04:01:29;3.80;;;2.00;;
49235;SDS011;35067;48.134;8.378;2024-01-15T04:02:30;4.70;;;2.30;;
49235;SDS011;35067;48.134;8.378;2024-01-15T04:03:31;5.63;;;2.23;;
49235;SDS011;35067;48.134;8.378;2024-01-15T04:04:31;3.43;;;2.33;;
49235;SDS011;35067;48.134;8.378;2024-01-15T04:05:32;4.50;;;2.17;;
49235;SDS011;35067;48.134;8.378;2024-01-15T04:06:33;4.40;;;2.33;;
49235;SDS011;35067;48.134;8.378;2024-01-15T04:07:33;4.80;;;2.10;;
49235;SDS011;35067;48.134;8.378;2024-01-15T04:08:34;4.07;;;1.83;;
49235;SDS011;35067;48.134;8.378;2024-01-15T04:09:35;3.20;;;1.80;;
49235;SDS011;35067;48.134;8.378;2024-01-15T04:10:36;3.43;;;2.00;;
49235;SDS011;35067;48.134;8.378;2024-01-15T04:11:37;4.87;;;2.73;;
49235;SDS011;35067;48.134;8.378;2024-01-15T04:12:37;4.53;;;2.40;;
49235;SDS011;35067;48.134;8.378;2024-01-15T04:13:38;4.83;;;2.50;;
49235;SDS011;35067;48.134;8.378;2024-01-15T04:14:39;3.97;;;2.07;;
49235;SDS011;35067;48.134;8.378;2024-01-15T04:15:39;4.43;;;2.57;;
49235;SDS011;35067;48.134;8.378;2024-01-15T04:16:40;3.63;;;2.20;;
49235;SDS011;35067;48.134;8.378;2024-01-15T04:17:41;4.65;;;2.08;;
49235;SDS011;35067;48.134;8.378;2024-01-15T04:18:42;3.10;;;2.20;;
49235;SDS011;35067;48.134;8.378;2024-01-15T04:19:45;2.37;;;2.03;;
49235;SDS011;35067;48.134;8.378;2024-01-15T04:20:47;4.85;;;2.40;;
49235;SDS011;35067;48.134;8.378;2024-01-15T04:21:48;3.37;;;2.10;;
49235;SDS011;35067;48.134;8.378;2024-01-15T04:22:49;4.17;;;2.20;;
49235;SDS011;35067;48.134;8.378;2024-01-15T04:23:49;4.37;;;2.43;;
49235;SDS011;35067;48.134;8.378;2024-01-15T04:24:50;2.97;;;2.20;;
49235;SDS011;35067;48.134;8.378;2024-01-15T04:25:51;3.80;;;2.13;;
49235;SDS011;35067;48.134;8.378;2024-01-15T04:26:51;3.40;;;2.10;;
49235;SDS011;35067;48.134;8.378;2024-01-15T04:27:52;3.67;;;1.93;;
49235;SDS011;35067;48.134;8.378;2024-01-15T04:28:53;3.23;;;2.20;;
49235;SDS011;35067;48.134;8.378;2024-01-15T04:29:53;4.00;;;2.37;;
49235;SDS011;35067;48.134;8.378;2024-01-15T04:30:54;6.77;;;2.67;;
49235;SDS011;35067;48.134;8.378;2024-01-15T04:31:55;4.23;;;2.37;;
49235;SDS011;35067;48.134;8.378;2024-01-15T04:32:55;4.43;;;2.30;;
49235;SDS011;35067;48.134;8.378;2024-01-15T04:33:56;5.03;;;2.60;;
49235;SDS011;35067;48.134;8.378;2024-01-15T04:34:57;5.03;;;2.43;;
49235;SDS011;35067;48.134;8.378;2024-01-15T04:36:01;4.53;;;2.83;;
49235;SDS011;35067;48.134;8.378;2024-01-15T04:37:03;5.38;;;3.08;;
49235;SDS011;35067;48.134;8.378;2024-01-15T04:38:04;6.60;;;2.60;;
49235;SDS011;35067;48.134;8.378;2024-01-15T04:39:05;5.23;;;2.70;;
49235;SDS011;35067;48.134;8.378;2024-01-15T04:40:06;6.13;;;2.60;;
49235;SDS011;35067;48.134;8.378;2024-01-15T04:41:11;5.22;;;2.88;;
49235;SDS011;35067;48.134;8.378;2024-01-15T04:42:13;6.15;;;3.28;;
49235;SDS011;35067;48.134;8.378;2024-01-15T04:43:14;5.43;;;3.07;;
49235;SDS011;35067;48.134;8.378;2024-01-15T04:44:14;4.60;;;3.07;;
49235;SDS011;35067;48.134;8.378;2024-01-15T04:45:15;4.17;;;2.63;;
49235;SDS011;35067;48.134;8.378;2024-01-15T04:46:16;5.30;;;3.20;;
49235;SDS011;35067;48.134;8.378;2024-01-15T04:47:17;5.13;;;2.93;;
49235;SDS011;35067;48.134;8.378;2024-01-15T04:48:17;5.33;;;2.80;;
49235;SDS011;35067;48.134;8.378;2024-01-15T04:49:18;4.83;;;2.67;;
49235;SDS011;35067;48.134;8.378;2024-01-15T04:50:18;4.47;;;2.90;;
49235;SDS011;35067;48.134;8.378;2024-01-15T04:51:19;5.50;;;2.67;;
49235;SDS011;35067;48.134;8.378;2024-01-15T04:52:20;5.97;;;3.20;;
49235;SDS011;35067;48.134;8.378;2024-01-15T04:53:21;4.47;;;2.80;;
49235;SDS011;35067;48.134;8.378;2024-01-15T04:54:21;6.40;;;3.07;;
49235;SDS011;35067;48.134;8.378;2024-01-15T04:55:22;7.73;;;3.43;;
49235;SDS011;35067;48.134;8.378;2024-01-15T04:56:22;8.47;;;3.80;;
49235;SDS011;35067;48.134;8.378;2024-01-15T04:57:23;5.70;;;3.33;;
49235;SDS011;35067;48.134;8.378;2024-01-15T04:58:24;6.00;;;3.50;;
49235;SDS011;35067;48.134;8.378;2024-01-15T04:59:26;9.27;;;4.25;;
49235;SDS011;35067;48.134;8.378;2024-01-15T05:00:27;5.70;;;4.03;;
49235;SDS011;35067;48.134;8.378;2024-01-15T05:01:34;9.57;;;3.97;;
49235;SDS011;35067;48.134;8.378;2024-01-15T05:02:35;4.45;;;3.17;;
49235;SDS011;35067;48.134;8.378;2024-01-15T05:03:35;9.40;;;4.13;;
49235;SDS011;35067;48.134;8.378;2024-01-15T05:04:36;5.20;;;3.30;;
49235;SDS011;35067;48.134;8.378;2024-01-15T05:05:37;7.13;;;3.83;;
49235;SDS011;35067;48.134;8.378;2024-01-15T05:06:37;6.87;;;3.67;;
49235;SDS011;35067;48.134;8.378;2024-01-15T05:07:38;6.20;;;3.73;;
49235;SDS011;35067;48.134;8.378;2024-01-15T05:08:39;7.37;;;3.70;;
49235;SDS011;35067;48.134;8.378;2024-01-15T05:09:39;6.83;;;3.90;;
49235;SDS011;35067;48.134;8.378;2024-01-15T05:10:40;5.47;;;3.40;;
49235;SDS011;35067;48.134;8.378;2024-01-15T05:11:41;7.97;;;4.40;;
49235;SDS011;35067;48.134;8.378;2024-01-15T05:12:41;5.90;;;3.10;;
49235;SDS011;35067;48.134;8.378;2024-01-15T05:13:42;4.83;;;2.93;;
49235;SDS011;35067;48.134;8.378;2024-01-15T05:14:43;5.33;;;3.33;;
49235;SDS011;35067;48.134;8.378;2024-01-15T05:15:43;4.50;;;2.70;;
49235;SDS011;35067;48.134;8.378;2024-01-15T05:16:47;9.43;;;4.13;;
49235;SDS011;35067;48.134;8.378;2024-01-15T05:17:49;4.90;;;2.53;;
49235;SDS011;35067;48.134;8.378;2024-01-15T05:18:49;7.33;;;3.77;;
49235;SDS011;35067;48.134;8.378;2024-01-15T05:19:50;6.23;;;3.20;;
49235;SDS011;35067;48.134;8.378;2024-01-15T05:20:51;7.07;;;4.43;;
49235;SDS011;35067;48.134;8.378;2024-01-15T05:21:52;7.75;;;4.50;;
49235;SDS011;35067;48.134;8.378;2024-01-15T05:22:53;8.17;;;4.10;;
49235;SDS011;35067;48.134;8.378;2024-01-15T05:23:53;6.37;;;3.30;;
49235;SDS011;35067;48.134;8.378;2024-01-15T05:24:54;6.30;;;3.03;;
49235;SDS011;35067;48.134;8.378;2024-01-15T05:25:55;4.53;;;2.60;;
49235;SDS011;35067;48.134;8.378;2024-01-15T05:26:55;7.67;;;4.10;;
49235;SDS011;35067;48.134;8.378;2024-01-15T05:27:56;4.33;;;3.23;;
49235;SDS011;35067;48.134;8.378;2024-01-15T05:28:57;6.10;;;3.50;;
49235;SDS011;35067;48.134;8.378;2024-01-15T05:29:57;6.20;;;3.87;;
49235;SDS011;35067;48.134;8.378;2024-01-15T05:30:58;9.47;;;6.37;;
49235;SDS011;35067;48.134;8.378;2024-01-15T05:31:59;6.10;;;3.40;;
49235;SDS011;35067;48.134;8.378;2024-01-15T05:33:00;9.00;;;4.70;;
49235;SDS011;35067;48.134;8.378;2024-01-15T05:34:01;3.63;;;2.43;;
49235;SDS011;35067;48.134;8.378;2024-01-15T05:35:02;7.90;;;4.00;;
49235;SDS011;35067;48.134;8.378;2024-01-15T05:36:03;5.53;;;3.53;;
49235;SDS011;35067;48.134;8.378;2024-01-15T05:37:04;6.18;;;4.30;;
49235;SDS011;35067;48.134;8.378;2024-01-15T05:38:04;5.10;;;3.33;;
49235;SDS011;35067;48.134;8.378;2024-01-15T05:39:05;4.90;;;3.20;;
49235;SDS011;35067;48.134;8.378;2024-01-15T05:40:06;4.63;;;2.90;;
49235;SDS011;35067;48.134;8.378;2024-01-15T05:41:07;6.13;;;2.85;;
49235;SDS011;35067;48.134;8.378;2024-01-15T05:42:08;5.20;;;2.57;;
49235;SDS011;35067;48.134;8.378;2024-01-15T05:43:08;5.43;;;2.83;;
49235;SDS011;35067;48.134;8.378;2024-01-15T05:44:09;4.37;;;3.00;;
49235;SDS011;35067;48.134;8.378;2024-01-15T05:45:10;4.63;;;2.88;;
49235;SDS011;35067;48.134;8.378;2024-01-15T05:46:11;3.43;;;2.37;;
49235;SDS011;35067;48.134;8.378;2024-01-15T05:47:12;3.77;;;2.40;;
49235;SDS011;35067;48.134;8.378;2024-01-15T05:48:12;3.70;;;2.20;;
49235;SDS011;35067;48.134;8.378;2024-01-15T05:49:13;4.77;;;2.57;;
49235;SDS011;35067;48.134;8.378;2024-01-15T05:50:14;5.23;;;2.80;;
49235;SDS011;35067;48.134;8.378;2024-01-15T05:51:15;5.83;;;2.30;;
49235;SDS011;35067;48.134;8.378;2024-01-15T05:52:15;5.10;;;3.23;;
49235;SDS011;35067;48.134;8.378;2024-01-15T05:53:16;5.70;;;3.53;;
49235;SDS011;35067;48.134;8.378;2024-01-15T05:54:18;6.93;;;3.23;;
49235;SDS011;35067;48.134;8.378;2024-01-15T05:55:19;7.20;;;3.85;;
49235;SDS011;35067;48.134;8.378;2024-01-15T05:56:20;3.87;;;2.50;;
49235;SDS011;35067;48.134;8.378;2024-01-15T05:57:21;4.83;;;2.50;;
49235;SDS011;35067;48.134;8.378;2024-01-15T05:58:22;4.83;;;2.30;;
49235;SDS011;35067;48.134;8.378;2024-01-15T05:59:22;2.60;;;1.93;;
49235;SDS011;35067;48.134;8.378;2024-01-15T06:00:23;4.53;;;2.20;;
49235;SDS011;35067;48.134;8.378;2024-01-15T06:01:24;6.00;;;2.57;;
49235;SDS011;35067;48.134;8.378;2024-01-15T06:02:24;5.33;;;3.23;;
49235;SDS011;35067;48.134;8.378;2024-01-15T06:03:25;5.00;;;2.53;;
49235;SDS011;35067;48.134;8.378;2024-01-15T06:04:26;3.77;;;2.23;;
49235;SDS011;35067;48.134;8.378;2024-01-15T06:05:26;4.73;;;2.33;;
49235;SDS011;35067;48.134;8.378;2024-01-15T06:06:27;3.90;;;2.20;;